sensor_id;sensor_type;location;lat;lon;timestamp;pressure;altitude;pressure_sealevel;temperature;humidity
71043;BME280;58696;52.134;5.500;2023-10-31T00:00:38;99573.16;;;9.66;100.00
71043;BME280;58696;52.134;5.500;2023-10-31T00:03:05;99575.38;;;9.63;100.00
71043;BME280;58696;52.134;5.500;2023-10-31T00:05:37;99584.84;;;9.62;100.00
71043;BME280;58696;52.134;5.500;2023-10-31T00:08:03;99583.84;;;9.57;100.00
71043;BME280;58696;52.134;5.500;2023-10-31T00:10:30;99582.72;;;9.53;100.00
71043;BME280;58696;52.134;5.500;2023-10-31T00:12:59;99581.16;;;9.52;100.00
71043;BME280;58696;52.134;5.500;2023-10-31T00:15:26;99577.22;;;9.49;100.00
71043;BME280;58696;52.134;5.500;2023-10-31T00:17:58;99580.97;;;9.46;100.00
71043;BME280;58696;52.134;5.500;2023-10-31T00:20:26;99591.25;;;9.46;100.00
71043;BME280;58696;52.134;5.500;2023-10-31T00:22:52;99596.56;;;9.45;100.00
71043;BME280;58696;52.134;5.500;2023-10-31T00:25:19;99587.50;;;9.42;100.00
71043;BME280;58696;52.134;5.500;2023-10-31T00:27:50;99592.03;;;9.40;100.00
71043;BME280;58696;52.134;5.500;2023-10-31T00:30:17;99601.72;;;9.38;100.00
71043;BME280;58696;52.134;5.500;2023-10-31T00:32:44;99597.59;;;9.37;100.00
71043;BME280;58696;52.134;5.500;2023-10-31T00:35:13;99611.97;;;9.38;100.00
71043;BME280;58696;52.134;5.500;2023-10-31T00:37:42;99608.41;;;9.39;100.00
71043;BME280;58696;52.134;5.500;2023-10-31T00:40:09;99604.06;;;9.40;100.00
71043;BME280;58696;52.134;5.500;2023-10-31T00:42:44;99600.94;;;9.38;100.00
71043;BME280;58696;52.134;5.500;2023-10-31T00:45:13;99600.53;;;9.34;100.00
71043;BME280;58696;52.134;5.500;2023-10-31T00:47:41;99599.41;;;9.30;100.00
71043;BME280;58696;52.134;5.500;2023-10-31T00:50:10;99590.09;;;9.29;100.00
71043;BME280;58696;52.134;5.500;2023-10-31T00:52:36;99609.06;;;9.28;100.00
71043;BME280;58696;52.134;5.500;2023-10-31T00:55:06;99602.34;;;9.27;100.00
71043;BME280;58696;52.134;5.500;2023-10-31T00:57:32;99609.84;;;9.29;100.00
71043;BME280;58696;52.134;5.500;2023-10-31T00:59:59;99622.47;;;9.30;100.00
71043;BME280;58696;52.134;5.500;2023-10-31T01:02:28;99629.16;;;9.31;100.00
71043;BME280;58696;52.134;5.500;2023-10-31T01:04:54;99629.75;;;9.33;100.00
71043;BME280;58696;52.134;5.500;2023-10-31T01:07:21;99636.66;;;9.33;100.00
71043;BME280;58696;52.134;5.500;2023-10-31T01:09:52;99634.47;;;9.36;100.00
71043;BME280;58696;52.134;5.500;2023-10-31T01:12:19;99638.81;;;9.36;100.00
71043;BME280;58696;52.134;5.500;2023-10-31T01:14:46;99648.09;;;9.37;100.00
71043;BME280;58696;52.134;5.500;2023-10-31T01:17:12;99646.31;;;9.37;100.00
71043;BME280;58696;52.134;5.500;2023-10-31T01:19:39;99646.88;;;9.39;100.00
71043;BME280;58696;52.134;5.500;2023-10-31T01:22:06;99641.34;;;9.42;100.00
71043;BME280;58696;52.134;5.500;2023-10-31T01:24:35;99644.91;;;9.41;100.00
71043;BME280;58696;52.134;5.500;2023-10-31T01:27:04;99643.13;;;9.42;100.00
71043;BME280;58696;52.134;5.500;2023-10-31T01:29:30;99654.97;;;9.43;100.00
71043;BME280;58696;52.134;5.500;2023-10-31T01:31:59;99651.41;;;9.44;100.00
71043;BME280;58696;52.134;5.500;2023-10-31T01:34:32;99655.75;;;9.43;100.00
71043;BME280;58696;52.134;5.500;2023-10-31T01:37:01;99664.00;;;9.45;100.00
71043;BME280;58696;52.134;5.500;2023-10-31T01:39:28;99668.16;;;9.46;100.00
71043;BME280;58696;52.134;5.500;2023-10-31T01:41:57;99670.53;;;9.48;100.00
71043;BME280;58696;52.134;5.500;2023-10-31T01:44:26;99674.44;;;9.51;100.00
71043;BME280;58696;52.134;5.500;2023-10-31T01:46:53;99683.75;;;9.52;100.00
71043;BME280;58696;52.134;5.500;2023-10-31T01:49:20;99677.78;;;9.51;100.00
71043;BME280;58696;52.134;5.500;2023-10-31T01:51:49;99674.44;;;9.51;100.00
71043;BME280;58696;52.134;5.500;2023-10-31T01:54:18;99672.88;;;9.49;100.00
71043;BME280;58696;52.134;5.500;2023-10-31T01:56:52;99672.09;;;9.49;100.00
71043;BME280;58696;52.134;5.500;2023-10-31T01:59:29;99671.88;;;9.51;100.00
71043;BME280;58696;52.134;5.500;2023-10-31T02:01:56;99672.66;;;9.51;100.00
71043;BME280;58696;52.134;5.500;2023-10-31T02:04:26;99670.72;;;9.53;100.00
71043;BME280;58696;52.134;5.500;2023-10-31T02:06:55;99671.28;;;9.55;100.00
71043;BME280;58696;52.134;5.500;2023-10-31T02:09:22;99674.44;;;9.57;100.00
71043;BME280;58696;52.134;5.500;2023-10-31T02:11:51;99673.44;;;9.58;100.00
71043;BME280;58696;52.134;5.500;2023-10-31T02:14:21;99672.44;;;9.59;100.00
71043;BME280;58696;52.134;5.500;2023-10-31T02:16:47;99673.25;;;9.60;100.00
71043;BME280;58696;52.134;5.500;2023-10-31T02:19:18;99676.38;;;9.62;100.00
71043;BME280;58696;52.134;5.500;2023-10-31T02:21:46;99679.75;;;9.62;100.00
71043;BME280;58696;52.134;5.500;2023-10-31T02:24:14;99676.19;;;9.63;100.00
71043;BME280;58696;52.134;5.500;2023-10-31T02:26:42;99674.19;;;9.65;100.00
71043;BME280;58696;52.134;5.500;2023-10-31T02:29:09;99673.97;;;9.67;100.00
71043;BME280;58696;52.134;5.500;2023-10-31T02:31:37;99672.03;;;9.69;100.00
71043;BME280;58696;52.134;5.500;2023-10-31T02:34:09;99676.38;;;9.68;100.00
71043;BME280;58696;52.134;5.500;2023-10-31T02:36:40;99672.03;;;9.69;100.00
71043;BME280;58696;52.134;5.500;2023-10-31T02:39:10;99672.81;;;9.69;100.00
71043;BME280;58696;52.134;5.500;2023-10-31T02:41:37;99671.03;;;9.70;100.00
71043;BME280;58696;52.134;5.500;2023-10-31T02:44:06;99673.38;;;9.71;100.00
71043;BME280;58696;52.134;5.500;2023-10-31T02:46:39;99682.66;;;9.72;100.00
71043;BME280;58696;52.134;5.500;2023-10-31T02:49:08;99680.69;;;9.74;100.00
71043;BME280;58696;52.134;5.500;2023-10-31T02:51:38;99680.47;;;9.76;100.00
71043;BME280;58696;52.134;5.500;2023-10-31T02:54:05;99683.81;;;9.77;100.00
71043;BME280;58696;52.134;5.500;2023-10-31T02:56:33;99683.81;;;9.77;100.00
71043;BME280;58696;52.134;5.500;2023-10-31T02:58:59;99697.44;;;9.77;100.00
71043;BME280;58696;52.134;5.500;2023-10-31T03:01:28;99694.88;;;9.77;100.00
71043;BME280;58696;52.134;5.500;2023-10-31T03:03:55;99694.88;;;9.77;100.00
71043;BME280;58696;52.134;5.500;2023-10-31T03:06:24;99692.28;;;9.77;100.00
71043;BME280;58696;52.134;5.500;2023-10-31T03:08:53;99695.66;;;9.78;100.00
71043;BME280;58696;52.134;5.500;2023-10-31T03:11:21;99697.44;;;9.77;100.00
71043;BME280;58696;52.134;5.500;2023-10-31T03:13:51;99702.78;;;9.75;100.00
71043;BME280;58696;52.134;5.500;2023-10-31T03:16:23;99710.47;;;9.75;100.00
71043;BME280;58696;52.134;5.500;2023-10-31T03:18:50;99710.69;;;9.74;100.00
71043;BME280;58696;52.134;5.500;2023-10-31T03:21:17;99711.66;;;9.73;100.00
71043;BME280;58696;52.134;5.500;2023-10-31T03:23:48;99716.59;;;9.74;100.00
71043;BME280;58696;52.134;5.500;2023-10-31T03:26:18;99729.44;;;9.74;100.00
71043;BME280;58696;52.134;5.500;2023-10-31T03:28:50;99727.66;;;9.75;100.00
71043;BME280;58696;52.134;5.500;2023-10-31T03:31:26;99727.66;;;9.75;100.00
71043;BME280;58696;52.134;5.500;2023-10-31T03:33:55;99732.78;;;9.75;100.00
71043;BME280;58696;52.134;5.500;2023-10-31T03:36:22;99736.69;;;9.78;100.00
71043;BME280;58696;52.134;5.500;2023-10-31T03:38:49;99747.75;;;9.78;100.00
71043;BME280;58696;52.134;5.500;2023-10-31T03:41:16;99746.78;;;9.79;100.00
71043;BME280;58696;52.134;5.500;2023-10-31T03:43:45;99755.25;;;9.80;100.00
71043;BME280;58696;52.134;5.500;2023-10-31T03:46:13;99756.25;;;9.79;100.00
71043;BME280;58696;52.134;5.500;2023-10-31T03:48:41;99760.41;;;9.80;100.00
71043;BME280;58696;52.134;5.500;2023-10-31T03:51:08;99768.28;;;9.78;100.00
71043;BME280;58696;52.134;5.500;2023-10-31T03:53:34;99774.22;;;9.79;100.00
71043;BME280;58696;52.134;5.500;2023-10-31T03:56:01;99779.53;;;9.77;100.00
71043;BME280;58696;52.134;5.500;2023-10-31T03:58:30;99789.00;;;9.77;100.00
71043;BME280;58696;52.134;5.500;2023-10-31T04:00:57;99783.09;;;9.76;100.00
71043;BME280;58696;52.134;5.500;2023-10-31T04:03:31;99789.00;;;9.77;100.00
71043;BME280;58696;52.134;5.500;2023-10-31T04:06:00;99791.78;;;9.75;100.00
71043;BME280;58696;52.134;5.500;2023-10-31T04:08:27;99792.78;;;9.74;100.00
71043;BME280;58696;52.134;5.500;2023-10-31T04:10:58;99792.00;;;9.73;100.00
71043;BME280;58696;52.134;5.500;2023-10-31T04:13:27;99798.88;;;9.73;100.00
71043;BME280;58696;52.134;5.500;2023-10-31T04:15:57;99794.75;;;9.72;100.00
71043;BME280;58696;52.134;5.500;2023-10-31T04:18:24;99806.22;;;9.69;100.00
71043;BME280;58696;52.134;5.500;2023-10-31T04:20:53;99809.56;;;9.70;100.00
71043;BME280;58696;52.134;5.500;2023-10-31T04:23:24;99811.56;;;9.68;100.00
71043;BME280;58696;52.134;5.500;2023-10-31T04:25:53;99813.31;;;9.67;100.00
71043;BME280;58696;52.134;5.500;2023-10-31T04:28:20;99815.28;;;9.65;100.00
71043;BME280;58696;52.134;5.500;2023-10-31T04:30:49;99812.94;;;9.64;100.00
71043;BME280;58696;52.134;5.500;2023-10-31T04:33:16;99823.41;;;9.62;100.00
71043;BME280;58696;52.134;5.500;2023-10-31T04:35:43;99825.56;;;9.59;100.00
71043;BME280;58696;52.134;5.500;2023-10-31T04:38:09;99819.84;;;9.57;100.00
71043;BME280;58696;52.134;5.500;2023-10-31T04:40:37;99819.84;;;9.57;100.00
71043;BME280;58696;52.134;5.500;2023-10-31T04:43:08;99824.97;;;9.57;100.00
71043;BME280;58696;52.134;5.500;2023-10-31T04:45:35;99821.59;;;9.56;100.00
71043;BME280;58696;52.134;5.500;2023-10-31T04:48:04;99830.91;;;9.57;100.00
71043;BME280;58696;52.134;5.500;2023-10-31T04:50:31;99828.53;;;9.56;100.00
71043;BME280;58696;52.134;5.500;2023-10-31T04:52:57;99830.31;;;9.55;100.00
71043;BME280;58696;52.134;5.500;2023-10-31T04:55:24;99833.66;;;9.56;100.00
71043;BME280;58696;52.134;5.500;2023-10-31T04:57:52;99838.00;;;9.55;100.00
71043;BME280;58696;52.134;5.500;2023-10-31T05:00:19;99832.06;;;9.55;100.00
71043;BME280;58696;52.134;5.500;2023-10-31T05:02:49;99839.00;;;9.54;100.00
71043;BME280;58696;52.134;5.500;2023-10-31T05:05:18;99836.63;;;9.53;100.00
71043;BME280;58696;52.134;5.500;2023-10-31T05:07:45;99839.38;;;9.51;100.00
71043;BME280;58696;52.134;5.500;2023-10-31T05:10:14;99839.56;;;9.49;100.00
71043;BME280;58696;52.134;5.500;2023-10-31T05:12:41;99839.22;;;9.46;100.00
71043;BME280;58696;52.134;5.500;2023-10-31T05:15:08;99840.97;;;9.45;100.00
71043;BME280;58696;52.134;5.500;2023-10-31T05:17:35;99843.72;;;9.44;100.00
71043;BME280;58696;52.134;5.500;2023-10-31T05:20:03;99849.84;;;9.43;100.00
71043;BME280;58696;52.134;5.500;2023-10-31T05:22:36;99846.09;;;9.39;100.00
71043;BME280;58696;52.134;5.500;2023-10-31T05:25:05;99854.56;;;9.39;100.00
71043;BME280;58696;52.134;5.500;2023-10-31T05:27:32;99860.91;;;9.37;100.00
71043;BME280;58696;52.134;5.500;2023-10-31T05:30:00;99859.34;;;9.36;100.00
71043;BME280;58696;52.134;5.500;2023-10-31T05:32:29;99868.97;;;9.34;100.00
71043;BME280;58696;52.134;5.500;2023-10-31T05:35:00;99870.19;;;9.31;100.00
71043;BME280;58696;52.134;5.500;2023-10-31T05:37:27;99867.00;;;9.29;100.00
71043;BME280;58696;52.134;5.500;2023-10-31T05:39:54;99874.91;;;9.28;100.00
71043;BME280;58696;52.134;5.500;2023-10-31T05:42:22;99871.75;;;9.26;100.00
71043;BME280;58696;52.134;5.500;2023-10-31T05:44:52;99881.22;;;9.25;100.00
71043;BME280;58696;52.134;5.500;2023-10-31T05:47:18;99889.09;;;9.23;100.00
71043;BME280;58696;52.134;5.500;2023-10-31T05:49:48;99891.06;;;9.21;100.00
71043;BME280;58696;52.134;5.500;2023-10-31T05:52:15;99895.41;;;9.21;100.00
71043;BME280;58696;52.134;5.500;2023-10-31T05:54:41;99887.13;;;9.19;100.00
71043;BME280;58696;52.134;5.500;2023-10-31T05:57:11;99895.00;;;9.17;100.00
71043;BME280;58696;52.134;5.500;2023-10-31T05:59:39;99882.38;;;9.16;100.00
71043;BME280;58696;52.134;5.500;2023-10-31T06:02:08;99888.28;;;9.16;100.00
71043;BME280;58696;52.134;5.500;2023-10-31T06:04:34;99899.34;;;9.17;100.00
71043;BME280;58696;52.134;5.500;2023-10-31T06:07:04;99893.63;;;9.15;100.00
71043;BME280;58696;52.134;5.500;2023-10-31T06:09:30;99896.97;;;9.15;100.00
71043;BME280;58696;52.134;5.500;2023-10-31T06:12:00;99902.88;;;9.16;100.00
71043;BME280;58696;52.134;5.500;2023-10-31T06:14:29;99903.09;;;9.14;100.00
71043;BME280;58696;52.134;5.500;2023-10-31T06:16:58;99903.88;;;9.15;100.00
71043;BME280;58696;52.134;5.500;2023-10-31T06:19:32;99916.69;;;9.15;100.00
71043;BME280;58696;52.134;5.500;2023-10-31T06:22:04;99913.34;;;9.14;100.00
71043;BME280;58696;52.134;5.500;2023-10-31T06:24:30;99911.56;;;9.15;100.00
71043;BME280;58696;52.134;5.500;2023-10-31T06:26:57;99917.69;;;9.14;100.00
71043;BME280;58696;52.134;5.500;2023-10-31T06:29:23;99920.25;;;9.14;100.00
71043;BME280;58696;52.134;5.500;2023-10-31T06:32:12;99923.59;;;9.14;100.00
71043;BME280;58696;52.134;5.500;2023-10-31T06:34:41;99922.81;;;9.14;100.00
71043;BME280;58696;52.134;5.500;2023-10-31T06:37:12;99924.59;;;9.13;100.00
71043;BME280;58696;52.134;5.500;2023-10-31T06:39:40;99924.59;;;9.13;100.00
71043;BME280;58696;52.134;5.500;2023-10-31T06:42:07;99929.72;;;9.13;100.00
71043;BME280;58696;52.134;5.500;2023-10-31T06:44:33;99929.50;;;9.15;100.00
71043;BME280;58696;52.134;5.500;2023-10-31T06:47:02;99940.34;;;9.17;100.00
71043;BME280;58696;52.134;5.500;2023-10-31T06:49:31;99937.00;;;9.16;100.00
71043;BME280;58696;52.134;5.500;2023-10-31T06:52:00;99947.25;;;9.16;100.00
71043;BME280;58696;52.134;5.500;2023-10-31T06:54:26;99946.25;;;9.17;100.00
71043;BME280;58696;52.134;5.500;2023-10-31T06:56:57;99949.81;;;9.16;100.00
71043;BME280;58696;52.134;5.500;2023-10-31T06:59:30;99957.72;;;9.15;100.00
71043;BME280;58696;52.134;5.500;2023-10-31T07:01:59;99954.16;;;9.16;100.00
71043;BME280;58696;52.134;5.500;2023-10-31T07:04:25;99953.16;;;9.17;100.00
71043;BME280;58696;52.134;5.500;2023-10-31T07:06:52;99952.19;;;9.18;100.00
71043;BME280;58696;52.134;5.500;2023-10-31T07:09:26;99960.47;;;9.20;100.00
71043;BME280;58696;52.134;5.500;2023-10-31T07:11:58;99961.28;;;9.20;100.00
71043;BME280;58696;52.134;5.500;2023-10-31T07:14:25;99961.28;;;9.20;100.00
71043;BME280;58696;52.134;5.500;2023-10-31T07:16:51;99967.97;;;9.21;100.00
71043;BME280;58696;52.134;5.500;2023-10-31T07:19:18;99972.72;;;9.25;100.00
71043;BME280;58696;52.134;5.500;2023-10-31T07:21:45;99979.03;;;9.29;100.00
71043;BME280;58696;52.134;5.500;2023-10-31T07:24:13;99979.22;;;9.34;100.00
71043;BME280;58696;52.134;5.500;2023-10-31T07:26:42;99983.00;;;9.38;100.00
71043;BME280;58696;52.134;5.500;2023-10-31T07:29:09;99986.75;;;9.42;100.00
71043;BME280;58696;52.134;5.500;2023-10-31T07:31:36;99988.53;;;9.48;100.00
71043;BME280;58696;52.134;5.500;2023-10-31T07:34:05;99983.81;;;9.58;100.00
71043;BME280;58696;52.134;5.500;2023-10-31T07:36:32;99985.00;;;9.75;100.00
71043;BME280;58696;52.134;5.500;2023-10-31T07:39:01;99993.50;;;9.96;100.00
71043;BME280;58696;52.134;5.500;2023-10-31T07:41:30;99998.63;;;10.09;100.00
71043;BME280;58696;52.134;5.500;2023-10-31T07:43:57;99999.00;;;10.13;100.00
71043;BME280;58696;52.134;5.500;2023-10-31T07:46:24;99999.81;;;10.13;100.00
71043;BME280;58696;52.134;5.500;2023-10-31T07:48:55;99999.41;;;10.03;100.00
71043;BME280;58696;52.134;5.500;2023-10-31T07:51:24;100007.50;;;10.00;100.00
71043;BME280;58696;52.134;5.500;2023-10-31T07:53:55;100011.44;;;10.09;100.00
71043;BME280;58696;52.134;5.500;2023-10-31T07:56:26;100007.91;;;10.17;100.00
71043;BME280;58696;52.134;5.500;2023-10-31T07:58:55;100015.22;;;10.40;100.00
71043;BME280;58696;52.134;5.500;2023-10-31T08:01:22;100015.97;;;11.05;100.00
71043;BME280;58696;52.134;5.500;2023-10-31T08:03:51;100011.94;;;11.22;100.00
71043;BME280;58696;52.134;5.500;2023-10-31T08:06:17;100019.34;;;11.05;100.00
71043;BME280;58696;52.134;5.500;2023-10-31T08:08:45;100026.91;;;10.87;100.00
71043;BME280;58696;52.134;5.500;2023-10-31T08:11:11;100018.88;;;10.70;100.00
71043;BME280;58696;52.134;5.500;2023-10-31T08:13:41;100020.50;;;10.51;100.00
71043;BME280;58696;52.134;5.500;2023-10-31T08:16:10;100026.47;;;10.39;100.00
71043;BME280;58696;52.134;5.500;2023-10-31T08:18:42;100020.16;;;10.28;100.00
71043;BME280;58696;52.134;5.500;2023-10-31T08:21:11;100021.53;;;10.24;100.00
71043;BME280;58696;52.134;5.500;2023-10-31T08:23:37;100019.38;;;10.27;100.00
71043;BME280;58696;52.134;5.500;2023-10-31T08:26:04;100024.09;;;10.31;100.00
71043;BME280;58696;52.134;5.500;2023-10-31T08:28:33;100025.84;;;10.50;100.00
71043;BME280;58696;52.134;5.500;2023-10-31T08:31:00;100022.81;;;10.73;100.00
71043;BME280;58696;52.134;5.500;2023-10-31T08:33:29;100029.16;;;10.77;100.00
71043;BME280;58696;52.134;5.500;2023-10-31T08:35:56;100029.16;;;10.70;100.00
71043;BME280;58696;52.134;5.500;2023-10-31T08:38:22;100033.53;;;10.63;100.00
71043;BME280;58696;52.134;5.500;2023-10-31T08:40:58;100033.53;;;10.63;100.00
71043;BME280;58696;52.134;5.500;2023-10-31T08:43:29;100044.56;;;10.70;100.00
71043;BME280;58696;52.134;5.500;2023-10-31T08:45:58;100038.16;;;10.99;100.00
71043;BME280;58696;52.134;5.500;2023-10-31T08:48:26;100048.91;;;11.98;100.00
71043;BME280;58696;52.134;5.500;2023-10-31T08:50:55;100056.59;;;12.66;100.00
71043;BME280;58696;52.134;5.500;2023-10-31T08:53:24;100053.84;;;12.98;100.00
71043;BME280;58696;52.134;5.500;2023-10-31T08:55:50;100054.56;;;13.53;100.00
71043;BME280;58696;52.134;5.500;2023-10-31T08:58:19;100057.56;;;13.20;100.00
71043;BME280;58696;52.134;5.500;2023-10-31T09:00:48;100059.25;;;13.45;100.00
71043;BME280;58696;52.134;5.500;2023-10-31T09:03:17;100070.50;;;14.15;100.00
71043;BME280;58696;52.134;5.500;2023-10-31T09:05:46;100075.31;;;13.88;100.00
71043;BME280;58696;52.134;5.500;2023-10-31T09:08:13;100086.72;;;13.69;100.00
71043;BME280;58696;52.134;5.500;2023-10-31T09:10:45;100080.13;;;13.97;100.00
71043;BME280;58696;52.134;5.500;2023-10-31T09:13:16;100082.41;;;13.21;100.00
71043;BME280;58696;52.134;5.500;2023-10-31T09:15:45;100095.13;;;12.79;100.00
71043;BME280;58696;52.134;5.500;2023-10-31T09:18:12;100098.44;;;12.68;100.00
71043;BME280;58696;52.134;5.500;2023-10-31T09:20:39;100095.63;;;12.88;100.00
71043;BME280;58696;52.134;5.500;2023-10-31T09:23:08;100104.72;;;13.46;100.00
71043;BME280;58696;52.134;5.500;2023-10-31T09:25:34;100105.06;;;13.91;100.00
71043;BME280;58696;52.134;5.500;2023-10-31T09:28:01;100104.66;;;14.06;100.00
71043;BME280;58696;52.134;5.500;2023-10-31T09:30:28;100114.34;;;14.45;100.00
71043;BME280;58696;52.134;5.500;2023-10-31T09:32:57;100115.16;;;14.69;100.00
71043;BME280;58696;52.134;5.500;2023-10-31T09:35:24;100113.31;;;14.93;100.00
71043;BME280;58696;52.134;5.500;2023-10-31T09:37:56;100115.22;;;14.98;100.00
71043;BME280;58696;52.134;5.500;2023-10-31T09:40:24;100112.00;;;14.91;100.00
71043;BME280;58696;52.134;5.500;2023-10-31T09:42:51;100117.47;;;14.94;100.00
71043;BME280;58696;52.134;5.500;2023-10-31T09:45:19;100117.19;;;14.79;100.00
71043;BME280;58696;52.134;5.500;2023-10-31T09:47:46;100130.09;;;14.44;100.00
71043;BME280;58696;52.134;5.500;2023-10-31T09:50:13;100124.69;;;14.22;100.00
71043;BME280;58696;52.134;5.500;2023-10-31T09:52:45;100133.19;;;14.11;100.00
71043;BME280;58696;52.134;5.500;2023-10-31T09:55:14;100136.78;;;14.10;100.00
71043;BME280;58696;52.134;5.500;2023-10-31T09:57:42;100136.28;;;13.89;100.00
71043;BME280;58696;52.134;5.500;2023-10-31T10:00:11;100137.16;;;13.53;100.00
71043;BME280;58696;52.134;5.500;2023-10-31T10:02:38;100142.59;;;13.33;100.00
71043;BME280;58696;52.134;5.500;2023-10-31T10:05:12;100144.81;;;13.30;100.00
71043;BME280;58696;52.134;5.500;2023-10-31T10:07:43;100154.56;;;13.28;100.00
71043;BME280;58696;52.134;5.500;2023-10-31T10:10:12;100154.56;;;13.28;100.00
71043;BME280;58696;52.134;5.500;2023-10-31T10:12:43;100157.34;;;13.26;100.00
71043;BME280;58696;52.134;5.500;2023-10-31T10:15:11;100170.38;;;13.31;100.00
71043;BME280;58696;52.134;5.500;2023-10-31T10:17:38;100164.81;;;13.34;100.00
71043;BME280;58696;52.134;5.500;2023-10-31T10:20:11;100165.22;;;13.31;100.00
71043;BME280;58696;52.134;5.500;2023-10-31T10:22:44;100172.25;;;13.61;100.00
71043;BME280;58696;52.134;5.500;2023-10-31T10:25:14;100169.00;;;13.95;100.00
71043;BME280;58696;52.134;5.500;2023-10-31T10:27:45;100165.50;;;14.32;100.00
71043;BME280;58696;52.134;5.500;2023-10-31T10:30:15;100175.78;;;14.08;100.00
71043;BME280;58696;52.134;5.500;2023-10-31T10:32:44;100170.56;;;13.97;100.00
71043;BME280;58696;52.134;5.500;2023-10-31T10:35:13;100173.47;;;13.88;100.00
71043;BME280;58696;52.134;5.500;2023-10-31T10:37:45;100174.97;;;14.08;100.00
71043;BME280;58696;52.134;5.500;2023-10-31T10:40:13;100164.63;;;14.50;100.00
71043;BME280;58696;52.134;5.500;2023-10-31T10:42:47;100170.94;;;14.77;100.00
71043;BME280;58696;52.134;5.500;2023-10-31T10:45:19;100168.22;;;14.84;100.00
71043;BME280;58696;52.134;5.500;2023-10-31T10:47:52;100171.56;;;15.19;100.00
71043;BME280;58696;52.134;5.500;2023-10-31T10:50:22;100183.44;;;14.80;100.00
71043;BME280;58696;52.134;5.500;2023-10-31T10:53:21;100189.97;;;14.29;100.00
71043;BME280;58696;52.134;5.500;2023-10-31T10:55:51;100192.06;;;13.79;100.00
71043;BME280;58696;52.134;5.500;2023-10-31T10:58:37;100187.63;;;13.67;100.00
71043;BME280;58696;52.134;5.500;2023-10-31T11:01:08;100184.41;;;13.72;100.00
71043;BME280;58696;52.134;5.500;2023-10-31T11:03:36;100180.09;;;13.96;100.00
71043;BME280;58696;52.134;5.500;2023-10-31T11:06:04;100178.28;;;14.27;100.00
71043;BME280;58696;52.134;5.500;2023-10-31T11:08:34;100184.09;;;14.64;100.00
71043;BME280;58696;52.134;5.500;2023-10-31T11:11:05;100177.00;;;15.06;100.00
71043;BME280;58696;52.134;5.500;2023-10-31T11:13:34;100170.66;;;15.25;100.00
71043;BME280;58696;52.134;5.500;2023-10-31T11:16:11;100178.84;;;15.34;99.91
71043;BME280;58696;52.134;5.500;2023-10-31T11:18:40;100187.41;;;15.35;100.00
71043;BME280;58696;52.134;5.500;2023-10-31T11:21:07;100186.44;;;15.52;100.00
71043;BME280;58696;52.134;5.500;2023-10-31T11:23:36;100192.69;;;15.40;99.12
71043;BME280;58696;52.134;5.500;2023-10-31T11:26:02;100188.91;;;15.07;99.68
71043;BME280;58696;52.134;5.500;2023-10-31T11:28:32;100191.34;;;15.25;100.00
71043;BME280;58696;52.134;5.500;2023-10-31T11:31:01;100196.81;;;15.52;98.62
71043;BME280;58696;52.134;5.500;2023-10-31T11:33:33;100196.97;;;15.34;98.19
71043;BME280;58696;52.134;5.500;2023-10-31T11:36:00;100200.84;;;15.08;98.62
71043;BME280;58696;52.134;5.500;2023-10-31T11:38:31;100196.78;;;14.77;98.09
71043;BME280;58696;52.134;5.500;2023-10-31T11:41:03;100201.47;;;14.45;100.00
71043;BME280;58696;52.134;5.500;2023-10-31T11:43:56;100205.25;;;14.19;100.00
71043;BME280;58696;52.134;5.500;2023-10-31T11:46:24;100213.50;;;13.98;100.00
71043;BME280;58696;52.134;5.500;2023-10-31T11:48:57;100213.50;;;13.79;100.00
71043;BME280;58696;52.134;5.500;2023-10-31T11:51:28;100219.41;;;13.68;100.00
71043;BME280;58696;52.134;5.500;2023-10-31T11:53:59;100214.09;;;13.63;100.00
71043;BME280;58696;52.134;5.500;2023-10-31T11:56:28;100210.25;;;13.54;100.00
71043;BME280;58696;52.134;5.500;2023-10-31T11:59:04;100211.97;;;13.41;100.00
71043;BME280;58696;52.134;5.500;2023-10-31T12:01:31;100208.75;;;13.28;100.00
71043;BME280;58696;52.134;5.500;2023-10-31T12:04:00;100211.00;;;13.18;100.00
71043;BME280;58696;52.134;5.500;2023-10-31T12:06:31;100218.59;;;13.12;100.00
71043;BME280;58696;52.134;5.500;2023-10-31T12:08:59;100217.03;;;13.11;100.00
71043;BME280;58696;52.134;5.500;2023-10-31T12:11:29;100217.44;;;13.08;100.00
71043;BME280;58696;52.134;5.500;2023-10-31T12:14:02;100216.09;;;13.06;100.00
71043;BME280;58696;52.134;5.500;2023-10-31T12:16:33;100222.25;;;13.05;100.00
71043;BME280;58696;52.134;5.500;2023-10-31T12:19:05;100217.28;;;13.03;100.00
71043;BME280;58696;52.134;5.500;2023-10-31T12:21:45;100230.34;;;13.08;100.00
71043;BME280;58696;52.134;5.500;2023-10-31T12:24:18;100237.44;;;13.13;100.00
71043;BME280;58696;52.134;5.500;2023-10-31T12:26:47;100236.38;;;13.21;100.00
71043;BME280;58696;52.134;5.500;2023-10-31T12:29:16;100235.78;;;13.44;100.00
71043;BME280;58696;52.134;5.500;2023-10-31T12:31:51;100231.19;;;13.46;100.00
71043;BME280;58696;52.134;5.500;2023-10-31T12:34:22;100239.34;;;13.42;100.00
71043;BME280;58696;52.134;5.500;2023-10-31T12:36:53;100248.75;;;13.37;100.00
71043;BME280;58696;52.134;5.500;2023-10-31T12:39:25;100253.47;;;13.22;100.00
71043;BME280;58696;52.134;5.500;2023-10-31T12:41:53;100253.22;;;13.05;100.00
71043;BME280;58696;52.134;5.500;2023-10-31T12:44:24;100257.63;;;12.98;100.00
71043;BME280;58696;52.134;5.500;2023-10-31T12:46:52;100248.38;;;12.90;100.00
71043;BME280;58696;52.134;5.500;2023-10-31T12:49:20;100259.31;;;12.85;100.00
71043;BME280;58696;52.134;5.500;2023-10-31T12:52:03;100261.09;;;12.85;100.00
71043;BME280;58696;52.134;5.500;2023-10-31T12:54:32;100263.91;;;12.83;100.00
71043;BME280;58696;52.134;5.500;2023-10-31T12:57:06;100270.00;;;12.89;100.00
71043;BME280;58696;52.134;5.500;2023-10-31T12:59:37;100276.16;;;12.88;100.00
71043;BME280;58696;52.134;5.500;2023-10-31T13:02:06;100272.38;;;12.90;100.00